Time;durP1;ratioP1;P1;durP2;ratioP2;P2;SDS_P1;SDS_P2;PMS_P1;PMS_P2;Temp;Humidity;BMP_temperature;BMP_pressure;BME280_temperature;BME280_humidity;BME280_pressure;Samples;Min_cycle;Max_cycle;Signal;HPM_P1;HPM_P2
2022/12/10 00:01:36;;;;;;;16.67;8.13;;;-2.50;99.90;;;;;;5095176;27;20048;-67
2022/12/10 00:04:03;;;;;;;17.17;8.90;;;-2.50;99.90;;;;;;5098728;28;20434;-67
2022/12/10 00:06:48;;;;;;;17.60;9.27;;;-2.50;99.90;;;;;;5089647;28;20046;-66
2022/12/10 00:09:34;;;;;;;22.05;11.00;;;-2.50;99.90;;;;;;5096809;28;20032;-67
2022/12/10 00:12:19;;;;;;;46.67;23.40;;;-2.40;99.90;;;;;;5088698;28;20035;-68
2022/12/10 00:15:06;;;;;;;30.38;14.10;;;-2.50;99.90;;;;;;5087634;28;20123;-68
2022/12/10 00:17:52;;;;;;;36.05;18.60;;;-2.50;99.90;;;;;;5081563;28;20055;-67
2022/12/10 00:20:38;;;;;;;41.20;19.70;;;-2.60;99.90;;;;;;5072026;28;20032;-67
2022/12/10 00:23:24;;;;;;;29.52;15.15;;;-2.70;99.90;;;;;;5076908;28;20032;-67
2022/12/10 00:26:19;;;;;;;37.17;18.70;;;-2.70;99.90;;;;;;5072791;28;20737;-67
2022/12/10 00:29:07;;;;;;;30.23;16.10;;;-2.80;99.90;;;;;;5078685;28;20492;-67
2022/12/10 00:31:53;;;;;;;26.10;12.90;;;-2.90;99.90;;;;;;5040697;28;20032;-67
2022/12/10 00:34:39;;;;;;;24.75;12.43;;;-2.90;99.90;;;;;;5072818;28;20043;-67
2022/12/10 00:37:25;;;;;;;43.80;21.02;;;-2.90;99.90;;;;;;5075939;28;20048;-67
2022/12/10 00:40:11;;;;;;;19.77;10.18;;;-3.00;99.90;;;;;;5062180;28;20631;-67
2022/12/10 00:42:57;;;;;;;24.40;11.10;;;-3.10;99.90;;;;;;5075700;28;20436;-67
2022/12/10 00:45:43;;;;;;;24.45;12.07;;;-3.10;99.90;;;;;;5072860;28;20028;-67
2022/12/10 00:48:29;;;;;;;41.50;19.70;;;-3.10;99.90;;;;;;5075037;28;20032;-67
2022/12/10 00:51:21;;;;;;;61.65;28.73;;;-3.10;99.90;;;;;;5083574;28;20046;-67
2022/12/10 00:54:07;;;;;;;33.05;16.80;;;-3.10;99.90;;;;;;5102672;27;20599;-68
2022/12/10 00:56:53;;;;;;;42.28;19.40;;;-3.20;99.90;;;;;;5083131;27;20621;-67
2022/12/10 00:59:39;;;;;;;41.85;16.45;;;-3.30;99.90;;;;;;5109880;27;20042;-67
2022/12/10 01:02:25;;;;;;;35.85;16.23;;;-3.30;99.90;;;;;;5098869;27;20043;-67
2022/12/10 01:05:12;;;;;;;23.52;11.52;;;-3.40;99.90;;;;;;5089566;28;20087;-67
2022/12/10 01:07:57;;;;;;;35.17;16.30;;;-3.40;99.90;;;;;;5110598;27;20035;-67
2022/12/10 01:10:45;;;;;;;25.67;10.75;;;-3.40;99.90;;;;;;5099521;28;20097;-68
2022/12/10 01:13:31;;;;;;;26.17;12.18;;;-3.50;99.90;;;;;;5088697;28;20031;-66
2022/12/10 01:16:20;;;;;;;26.08;12.25;;;-3.60;99.90;;;;;;5106791;27;20203;-67
2022/12/10 01:19:06;;;;;;;20.05;10.38;;;-3.60;99.90;;;;;;5081251;28;20036;-66
2022/12/10 01:21:54;;;;;;;24.90;11.15;;;-3.60;99.90;;;;;;5102183;27;20681;-67
2022/12/10 01:24:40;;;;;;;23.77;10.90;;;-3.60;99.90;;;;;;5083763;28;20040;-67
2022/12/10 01:27:27;;;;;;;18.15;8.27;;;-3.70;99.90;;;;;;5095702;27;20031;-67
2022/12/10 01:30:13;;;;;;;16.70;8.98;;;-3.70;99.90;;;;;;5098167;28;20077;-68
2022/12/10 01:32:58;;;;;;;22.10;8.13;;;-3.80;99.90;;;;;;5106938;27;20648;-65
2022/12/10 01:35:44;;;;;;;15.48;8.00;;;-3.90;99.90;;;;;;5091332;27;20039;-65
2022/12/10 01:38:31;;;;;;;18.33;9.25;;;-3.90;99.90;;;;;;5099357;27;20082;-67
2022/12/10 01:41:20;;;;;;;15.27;6.78;;;-3.90;99.90;;;;;;5111439;27;20031;-65
2022/12/10 01:44:09;;;;;;;14.13;7.50;;;-3.90;99.90;;;;;;5102446;27;20033;-67
2022/12/10 01:46:58;;;;;;;14.45;6.85;;;-3.90;99.90;;;;;;5104329;27;20039;-65
2022/12/10 01:49:44;;;;;;;11.82;5.97;;;-3.90;99.90;;;;;;5099739;27;20016;-66
2022/12/10 01:52:30;;;;;;;14.90;7.45;;;-3.90;99.90;;;;;;5097966;27;20031;-67
2022/12/10 01:55:40;;;;;;;18.02;9.60;;;-3.70;99.90;;;;;;5094133;28;20594;-68
2022/12/10 01:58:25;;;;;;;17.38;9.20;;;-3.60;99.90;;;;;;5104660;27;20165;-67
2022/12/10 02:01:20;;;;;;;17.77;9.15;;;-3.60;99.90;;;;;;5107352;27;20070;-68
2022/12/10 02:04:47;;;;;;;23.33;12.65;;;-3.70;99.90;;;;;;5106884;27;20023;-66
2022/12/10 02:07:59;;;;;;;22.58;9.40;;;-3.70;99.90;;;;;;5098101;28;20057;-68
2022/12/10 02:10:59;;;;;;;22.92;11.73;;;-3.60;99.90;;;;;;5090074;28;20036;-66
2022/12/10 02:14:00;;;;;;;37.00;16.75;;;-3.50;99.90;;;;;;5097120;27;20035;-67
2022/12/10 02:16:52;;;;;;;28.85;14.30;;;-3.40;99.90;;;;;;5089221;28;20129;-66
2022/12/10 02:20:10;;;;;;;30.85;14.60;;;-3.50;99.90;;;;;;5090759;28;20118;-66
2022/12/10 02:23:04;;;;;;;22.02;11.52;;;-3.40;99.90;;;;;;5087880;28;20032;-66
2022/12/10 02:26:23;;;;;;;21.25;10.48;;;-3.30;99.90;;;;;;5090708;28;20122;-67
2022/12/10 02:29:24;;;;;;;18.63;8.07;;;-3.20;99.90;;;;;;5075131;28;20031;-68
2022/12/10 02:32:20;;;;;;;20.67;9.50;;;-3.30;99.90;;;;;;5096712;27;20118;-70
2022/12/10 02:35:13;;;;;;;18.70;9.07;;;-3.30;99.90;;;;;;5093309;27;20111;-68
2022/12/10 02:38:10;;;;;;;17.23;7.75;;;-3.10;99.90;;;;;;5096895;27;20024;-69
2022/12/10 02:40:37;;;;;;;12.07;6.25;;;-3.30;99.90;;;;;;5097559;27;20058;-69
2022/12/10 02:43:04;;;;;;;16.25;7.82;;;-3.30;99.90;;;;;;5116039;27;20039;-69
2022/12/10 02:45:30;;;;;;;19.42;8.90;;;-3.30;99.90;;;;;;5102153;27;20073;-69
2022/12/10 02:47:59;;;;;;;15.40;8.10;;;-3.20;99.90;;;;;;5103052;28;20519;-69
2022/12/10 02:50:25;;;;;;;17.60;8.98;;;-3.10;99.90;;;;;;5103438;27;20039;-68
2022/12/10 02:52:51;;;;;;;14.57;7.97;;;-3.10;99.90;;;;;;5099966;28;20039;-68
2022/12/10 02:55:19;;;;;;;16.90;8.23;;;-3.00;99.90;;;;;;5059492;28;20042;-68
2022/12/10 02:58:03;;;;;;;17.40;7.57;;;-2.90;99.90;;;;;;5081686;28;20448;-68
2022/12/10 03:00:35;;;;;;;14.27;7.53;;;-2.90;99.90;;;;;;5091122;28;20051;-68
2022/12/10 03:03:26;;;;;;;15.07;7.18;;;-2.90;99.90;;;;;;5097643;28;20036;-68
2022/12/10 03:06:46;;;;;;;13.15;7.45;;;-2.90;99.90;;;;;;5080569;28;20094;-68
2022/12/10 03:09:52;;;;;;;13.82;7.05;;;-2.90;99.90;;;;;;4996872;28;20132;-68
2022/12/10 03:12:38;;;;;;;18.80;8.20;;;-2.90;99.90;;;;;;5077567;28;20162;-68
2022/12/10 03:15:07;;;;;;;;;;;-3.00;99.90;;;;;;5079533;28;20040;-69
2022/12/10 03:17:34;;;;;;;13.85;6.88;;;-2.90;99.90;;;;;;5092389;28;19919;-68
2022/12/10 03:20:01;;;;;;;17.95;7.55;;;-3.00;99.90;;;;;;5091084;28;20040;-69
2022/12/10 03:22:29;;;;;;;12.82;7.13;;;-3.00;99.90;;;;;;5074893;28;20515;-69
2022/12/10 03:24:55;;;;;;;15.10;6.72;;;-3.00;99.90;;;;;;5088153;28;20043;-68
2022/12/10 03:27:24;;;;;;;16.13;6.88;;;-3.10;99.90;;;;;;5086080;28;20039;-70
2022/12/10 03:29:53;;;;;;;12.10;5.78;;;-3.00;99.90;;;;;;5089260;28;20044;-69
2022/12/10 03:32:22;;;;;;;14.45;6.53;;;-3.10;99.90;;;;;;5043114;28;20447;-68
2022/12/10 03:34:51;;;;;;;15.07;7.35;;;-3.00;99.90;;;;;;5060632;28;20040;-68
2022/12/10 03:37:17;;;;;;;12.20;6.80;;;-3.00;99.90;;;;;;5059905;28;20036;-70
2022/12/10 03:39:43;;;;;;;12.95;6.22;;;-2.90;99.90;;;;;;5062905;28;20511;-69
2022/12/10 03:42:09;;;;;;;10.73;5.82;;;-2.90;99.90;;;;;;5059031;28;20048;-68
2022/12/10 03:44:37;;;;;;;13.15;5.65;;;-2.80;99.90;;;;;;5063117;28;20067;-67
2022/12/10 03:47:06;;;;;;;13.02;6.65;;;-2.80;99.90;;;;;;5075955;28;20123;-68
2022/12/10 03:49:31;;;;;;;11.18;5.97;;;-2.70;99.90;;;;;;5065158;28;20052;-68
2022/12/10 03:51:57;;;;;;;14.68;6.53;;;-2.80;99.90;;;;;;5062280;28;20835;-67
2022/12/10 03:54:23;;;;;;;15.50;6.10;;;-2.70;99.90;;;;;;5066984;28;20515;-68
2022/12/10 03:56:49;;;;;;;9.50;5.28;;;-2.70;99.90;;;;;;5062439;28;20205;-68
2022/12/10 03:59:14;;;;;;;13.05;6.30;;;-2.70;99.90;;;;;;5065899;28;20051;-68
2022/12/10 04:01:41;;;;;;;14.38;6.28;;;-2.70;99.90;;;;;;5059794;28;20569;-68
2022/12/10 04:04:07;;;;;;;8.90;5.00;;;-2.60;99.90;;;;;;5063132;28;20064;-68
2022/12/10 04:06:33;;;;;;;10.43;5.10;;;-2.60;99.90;;;;;;5059584;28;20071;-68
2022/12/10 04:08:58;;;;;;;13.48;5.22;;;-2.70;99.90;;;;;;5067917;28;20053;-68
2022/12/10 04:11:24;;;;;;;10.77;5.10;;;-2.80;99.90;;;;;;5063299;28;20050;-68
2022/12/10 04:16:35;;;;;;;11.15;5.10;;;-2.80;99.90;;;;;;5063516;28;20504;-68
2022/12/10 04:19:09;;;;;;;9.73;5.43;;;-2.80;99.90;;;;;;5066396;28;20052;-68
2022/12/10 04:27:12;;;;;;;11.30;5.90;;;-2.70;99.90;;;;;;5059140;28;20033;-68
2022/12/10 04:29:39;;;;;;;11.40;5.80;;;-2.80;99.90;;;;;;5059271;28;20049;-68
2022/12/10 04:32:05;;;;;;;10.50;5.80;;;-2.80;99.90;;;;;;5055247;28;20037;-68
2022/12/10 04:34:31;;;;;;;10.68;5.50;;;-2.90;99.90;;;;;;5034400;28;20124;-68
2022/12/10 04:36:58;;;;;;;10.23;5.72;;;-2.80;99.90;;;;;;5054916;28;20183;-68
2022/12/10 04:39:24;;;;;;;11.68;5.45;;;-2.70;99.90;;;;;;5051304;28;20493;-68
2022/12/10 04:41:50;;;;;;;11.65;6.20;;;-2.80;99.90;;;;;;5057351;28;20048;-68
2022/12/10 04:44:16;;;;;;;11.10;5.95;;;-2.80;99.90;;;;;;5064514;28;20051;-68
2022/12/10 04:46:42;;;;;;;13.32;6.18;;;-2.70;99.90;;;;;;5062668;28;20051;-68
2022/12/10 04:49:08;;;;;;;10.57;6.03;;;-2.70;99.90;;;;;;5061237;28;20041;-68
2022/12/10 04:51:33;;;;;;;11.23;6.35;;;-2.80;99.90;;;;;;5055106;28;20032;-68
2022/12/10 04:53:59;;;;;;;10.48;5.93;;;-2.80;99.90;;;;;;5062814;28;20089;-68
2022/12/10 04:56:25;;;;;;;13.15;7.13;;;-2.80;99.90;;;;;;5052290;28;20037;-69
2022/12/10 04:58:51;;;;;;;13.63;6.20;;;-2.70;99.90;;;;;;5060209;28;20044;-69
2022/12/10 05:01:18;;;;;;;16.85;6.72;;;-2.60;99.90;;;;;;5063418;28;20040;-68
2022/12/10 05:03:44;;;;;;;12.15;7.00;;;-2.60;99.90;;;;;;5064804;28;20067;-68
2022/12/10 05:06:12;;;;;;;13.98;6.75;;;-2.70;99.90;;;;;;5060155;28;20443;-68
2022/12/10 05:08:39;;;;;;;13.43;6.22;;;-2.60;99.90;;;;;;5066942;28;20071;-68
2022/12/10 05:11:08;;;;;;;15.70;7.90;;;-2.50;99.90;;;;;;5054724;28;20056;-68
2022/12/10 05:13:34;;;;;;;11.80;6.60;;;-2.50;99.90;;;;;;5064951;28;20575;-68
2022/12/10 05:16:04;;;;;;;14.05;6.85;;;-2.40;99.90;;;;;;5054187;28;20124;-68
2022/12/10 05:18:30;;;;;;;11.30;6.50;;;-2.40;99.90;;;;;;5066326;28;20739;-68
2022/12/10 05:21:00;;;;;;;14.48;7.30;;;-2.40;99.90;;;;;;5054730;28;20055;-68
2022/12/10 05:23:28;;;;;;;13.52;7.25;;;-2.30;99.90;;;;;;5058545;28;20044;-68
2022/12/10 05:26:05;;;;;;;12.18;6.55;;;-2.30;99.90;;;;;;5053651;28;20131;-68
2022/12/10 05:28:33;;;;;;;12.82;6.55;;;-2.30;99.90;;;;;;5063059;28;20044;-69
2022/12/10 05:30:59;;;;;;;15.35;7.07;;;-2.40;99.90;;;;;;5054768;28;20086;-68
2022/12/10 05:33:26;;;;;;;11.63;5.85;;;-2.30;99.90;;;;;;5060484;28;20746;-68
2022/12/10 05:35:57;;;;;;;13.82;6.60;;;-2.30;99.90;;;;;;5054716;28;20053;-68
2022/12/10 05:38:24;;;;;;;11.43;6.55;;;-2.20;99.90;;;;;;5058253;28;20140;-68
2022/12/10 05:40:49;;;;;;;14.57;7.40;;;-2.20;99.90;;;;;;5049992;28;20044;-68
2022/12/10 05:43:16;;;;;;;15.55;7.07;;;-2.10;99.90;;;;;;5065857;28;20145;-68
2022/12/10 05:45:41;;;;;;;10.95;6.05;;;-2.10;99.90;;;;;;5064542;28;20032;-68
2022/12/10 05:48:09;;;;;;;13.73;7.60;;;-2.10;99.90;;;;;;5056867;28;20414;-68
2022/12/10 05:50:35;;;;;;;11.85;6.60;;;-2.10;99.90;;;;;;5048276;28;20054;-68
2022/12/10 05:53:01;;;;;;;15.23;6.78;;;-2.10;99.90;;;;;;5062802;28;20129;-68
2022/12/10 05:55:27;;;;;;;15.05;7.03;;;-2.10;99.90;;;;;;5058450;28;20097;-68
2022/12/10 05:57:53;;;;;;;11.07;6.30;;;-2.10;99.90;;;;;;5060397;28;20043;-70
2022/12/10 06:00:20;;;;;;;35.92;19.10;;;-2.00;99.90;;;;;;5056556;28;20036;-70
2022/12/10 06:02:45;;;;;;;22.05;11.65;;;-2.10;99.90;;;;;;5059840;28;20174;-68
2022/12/10 06:05:11;;;;;;;44.05;25.70;;;-2.00;99.90;;;;;;5060712;28;20037;-69
2022/12/10 06:07:37;;;;;;;29.92;16.45;;;-2.00;99.90;;;;;;5059676;28;20041;-67
2022/12/10 06:10:03;;;;;;;13.77;7.82;;;-2.00;99.90;;;;;;5061206;28;20120;-68
2022/12/10 06:12:28;;;;;;;17.63;8.90;;;-1.90;99.90;;;;;;5056704;28;20067;-69
2022/12/10 06:14:54;;;;;;;10.02;6.00;;;-2.00;99.90;;;;;;5045661;28;20052;-68
2022/12/10 06:17:20;;;;;;;14.13;6.85;;;-2.00;99.90;;;;;;5060648;28;20040;-69
2022/12/10 06:19:45;;;;;;;14.88;7.43;;;-2.00;99.90;;;;;;5034843;28;20047;-66
2022/12/10 06:22:11;;;;;;;13.40;6.85;;;-2.00;99.90;;;;;;5057365;28;20048;-69
2022/12/10 06:24:36;;;;;;;11.48;6.57;;;-2.00;99.90;;;;;;5034583;28;20094;-68
2022/12/10 06:27:03;;;;;;;13.38;7.05;;;-1.90;99.90;;;;;;5054979;28;20032;-69
2022/12/10 06:29:29;;;;;;;14.65;7.22;;;-1.90;99.90;;;;;;5059362;28;20464;-68
2022/12/10 06:31:55;;;;;;;12.63;7.38;;;-1.90;99.90;;;;;;5061199;28;20113;-69
2022/12/10 06:34:20;;;;;;;12.55;6.50;;;-1.90;99.90;;;;;;5063431;28;20068;-69
2022/12/10 06:36:46;;;;;;;8.95;5.30;;;-1.90;99.90;;;;;;5057014;28;20044;-68
2022/12/10 06:39:11;;;;;;;11.35;5.75;;;-1.80;99.90;;;;;;5040542;28;20534;-69
2022/12/10 06:41:38;;;;;;;9.65;5.75;;;-1.90;99.90;;;;;;5032028;28;20102;-68
2022/12/10 06:44:07;;;;;;;8.93;5.18;;;-1.90;99.90;;;;;;5057966;28;20043;-67
2022/12/10 06:46:32;;;;;;;10.40;5.38;;;-1.90;99.90;;;;;;5064819;28;20167;-67
2022/12/10 06:48:58;;;;;;;11.43;6.30;;;-1.80;99.90;;;;;;5064395;28;20128;-66
2022/12/10 06:51:24;;;;;;;12.30;6.53;;;-1.80;99.90;;;;;;5061651;28;20032;-68
2022/12/10 06:53:50;;;;;;;12.73;6.20;;;-1.80;99.90;;;;;;5058422;28;20040;-69
2022/12/10 06:56:21;;;;;;;15.52;8.32;;;-1.80;99.90;;;;;;5059336;28;20090;-68
2022/12/10 06:58:47;;;;;;;12.98;7.10;;;-1.80;99.90;;;;;;5060995;28;20064;-68
2022/12/10 07:01:15;;;;;;;17.70;9.07;;;-1.80;99.90;;;;;;5054133;28;20041;-68
2022/12/10 07:03:41;;;;;;;14.25;7.40;;;-1.80;99.90;;;;;;5058859;28;20055;-69
2022/12/10 07:06:08;;;;;;;12.82;6.03;;;-1.80;99.90;;;;;;5058067;28;20064;-68
2022/12/10 07:08:35;;;;;;;14.48;6.65;;;-1.80;99.90;;;;;;5062689;28;20044;-68
2022/12/10 07:11:10;;;;;;;11.10;5.95;;;-1.80;99.90;;;;;;5059410;28;20401;-68
2022/12/10 07:13:36;;;;;;;10.32;5.68;;;-1.90;99.90;;;;;;5064394;28;20064;-68
2022/12/10 07:16:02;;;;;;;9.43;5.60;;;-1.80;99.90;;;;;;5059257;28;20047;-72
2022/12/10 07:18:28;;;;;;;12.52;5.38;;;-1.80;99.90;;;;;;5061852;28;20123;-68
2022/12/10 07:20:54;;;;;;;7.80;4.43;;;-1.80;99.90;;;;;;5058642;28;20611;-68
2022/12/10 07:23:20;;;;;;;8.32;5.03;;;-1.80;99.90;;;;;;5045207;28;20036;-68
2022/12/10 07:25:46;;;;;;;11.65;5.85;;;-1.80;99.90;;;;;;5043884;28;20036;-68
2022/12/10 07:28:12;;;;;;;7.82;5.03;;;-1.80;99.90;;;;;;5054803;28;20045;-68
2022/12/10 07:30:38;;;;;;;9.05;5.03;;;-1.80;99.90;;;;;;5063396;28;20136;-68
2022/12/10 07:33:04;;;;;;;8.85;5.13;;;-1.80;99.90;;;;;;5047918;28;20131;-68
2022/12/10 07:35:29;;;;;;;8.40;4.53;;;-1.80;99.90;;;;;;5061683;28;20132;-69
2022/12/10 07:37:55;;;;;;;10.65;6.13;;;-1.80;99.90;;;;;;5069671;28;20032;-69
2022/12/10 07:40:21;;;;;;;8.20;4.95;;;-1.80;99.90;;;;;;5063758;28;20040;-68
2022/12/10 07:42:47;;;;;;;8.55;5.00;;;-1.90;99.90;;;;;;5063018;28;20044;-68
2022/12/10 07:45:13;;;;;;;9.13;4.70;;;-1.90;99.90;;;;;;5063309;28;20048;-67
2022/12/10 07:47:39;;;;;;;9.07;5.68;;;-1.90;99.90;;;;;;5051135;28;20037;-68
2022/12/10 07:50:05;;;;;;;7.55;4.60;;;-1.80;99.90;;;;;;5065446;28;20243;-68
2022/12/10 07:52:31;;;;;;;10.25;6.20;;;-1.80;99.90;;;;;;5063277;28;20045;-68
2022/12/10 07:54:57;;;;;;;10.80;5.82;;;-1.80;99.90;;;;;;5057583;28;20037;-68
2022/12/10 07:57:22;;;;;;;9.32;5.57;;;-1.80;99.90;;;;;;5068957;28;20052;-68
2022/12/10 07:59:48;;;;;;;11.15;5.72;;;-1.80;99.90;;;;;;5068292;28;20415;-68
2022/12/10 08:02:14;;;;;;;9.85;5.95;;;-1.70;99.90;;;;;;5065287;28;20033;-68
2022/12/10 08:04:39;;;;;;;9.70;5.72;;;-1.70;99.90;;;;;;5058687;28;20044;-68
2022/12/10 08:07:05;;;;;;;8.45;5.28;;;-1.70;99.90;;;;;;5059509;28;20048;-68
2022/12/10 08:09:31;;;;;;;8.30;4.55;;;-1.70;99.90;;;;;;5056538;28;20864;-68
2022/12/10 08:11:57;;;;;;;8.02;4.78;;;-1.70;99.90;;;;;;5041457;28;20040;-68
2022/12/10 08:14:23;;;;;;;8.40;5.03;;;-1.70;99.90;;;;;;5044587;28;20166;-69
2022/12/10 08:16:48;;;;;;;7.97;5.03;;;-1.70;99.90;;;;;;5061868;28;20055;-68
2022/12/10 08:19:14;;;;;;;9.15;4.93;;;-1.60;99.90;;;;;;5066984;28;20052;-68
2022/12/10 08:21:39;;;;;;;9.63;4.80;;;-1.50;99.90;;;;;;5059571;28;20427;-68
2022/12/10 08:24:05;;;;;;;8.15;5.30;;;-1.50;99.90;;;;;;5062581;28;20510;-68
2022/12/10 08:26:32;;;;;;;9.32;5.32;;;-1.50;99.90;;;;;;5053891;28;20048;-68
2022/12/10 08:28:58;;;;;;;96.18;44.78;;;-1.40;99.90;;;;;;5065326;28;20036;-68
2022/12/10 08:31:26;;;;;;;19.85;9.95;;;-1.30;99.90;;;;;;5060724;28;20044;-68
2022/12/10 08:33:52;;;;;;;24.08;10.93;;;-1.30;99.90;;;;;;5062026;28;20063;-68
2022/12/10 08:36:18;;;;;;;14.10;7.53;;;-1.30;99.90;;;;;;5060656;28;20040;-68
2022/12/10 08:38:45;;;;;;;14.68;7.72;;;-1.40;99.90;;;;;;5050210;28;20466;-68
2022/12/10 08:41:19;;;;;;;11.50;5.85;;;-1.40;99.90;;;;;;5065653;28;20064;-68
2022/12/10 08:43:46;;;;;;;10.25;5.55;;;-1.40;99.90;;;;;;5065744;28;20400;-68
2022/12/10 08:46:13;;;;;;;9.85;6.13;;;-1.50;99.90;;;;;;5059031;28;20055;-68
2022/12/10 08:48:39;;;;;;;13.02;7.05;;;-1.50;99.90;;;;;;5059434;28;20866;-68
2022/12/10 08:51:06;;;;;;;9.50;5.30;;;-1.30;99.90;;;;;;5065538;28;20047;-68
2022/12/10 08:53:33;;;;;;;7.45;4.65;;;-1.30;99.90;;;;;;5062535;28;20068;-68
2022/12/10 08:55:59;;;;;;;9.65;5.35;;;-1.20;99.90;;;;;;5058460;28;20094;-68
2022/12/10 08:58:24;;;;;;;24.05;12.15;;;-1.20;99.90;;;;;;5044646;28;20048;-69
2022/12/10 09:00:50;;;;;;;16.35;8.75;;;-1.30;99.90;;;;;;5056427;28;20148;-69
2022/12/10 09:03:16;;;;;;;11.30;5.68;;;-1.10;99.90;;;;;;5059563;28;20111;-69
2022/12/10 09:05:42;;;;;;;7.85;4.35;;;-1.10;99.90;;;;;;5060690;28;20120;-67
2022/12/10 09:08:09;;;;;;;7.85;3.67;;;-1.10;99.90;;;;;;5043286;28;20082;-69
2022/12/10 09:10:39;;;;;;;7.32;4.22;;;-1.00;99.90;;;;;;5058773;28;20052;-69
2022/12/10 09:13:05;;;;;;;9.68;4.75;;;-1.00;99.90;;;;;;5035998;28;20032;-68
2022/12/10 09:15:31;;;;;;;9.73;4.55;;;-0.90;99.90;;;;;;5053191;28;20037;-68
2022/12/10 09:17:57;;;;;;;6.13;3.58;;;-0.90;99.90;;;;;;5062694;28;20040;-67
2022/12/10 09:20:23;;;;;;;34.63;17.90;;;-0.90;99.90;;;;;;5037768;28;20123;-68
2022/12/10 09:22:49;;;;;;;30.25;14.65;;;-0.90;99.90;;;;;;5057687;28;20642;-67
2022/12/10 09:25:16;;;;;;;16.67;9.50;;;-0.80;99.90;;;;;;5060854;28;20063;-66
2022/12/10 09:27:43;;;;;;;22.55;11.93;;;-0.80;99.90;;;;;;5063174;28;20049;-68
2022/12/10 09:30:10;;;;;;;18.45;9.60;;;-0.70;99.90;;;;;;5056803;28;20520;-68
2022/12/10 09:32:36;;;;;;;13.13;7.45;;;-0.70;99.90;;;;;;5062795;28;20075;-68
2022/12/10 09:35:03;;;;;;;9.20;4.88;;;-0.60;99.90;;;;;;5064057;28;20047;-68
2022/12/10 09:37:29;;;;;;;6.63;4.30;;;-0.50;99.90;;;;;;5066537;28;20048;-68
2022/12/10 09:39:54;;;;;;;8.20;4.47;;;-0.60;99.90;;;;;;5056280;28;20033;-67
2022/12/10 09:42:26;;;;;;;6.38;4.35;;;-0.60;99.90;;;;;;5042896;28;20040;-69
2022/12/10 09:45:14;;;;;;;9.50;4.80;;;-0.70;99.90;;;;;;5065759;28;20591;-68
2022/12/10 09:48:02;;;;;;;37.83;16.55;;;-0.90;99.90;;;;;;5063309;28;20570;-68
2022/12/10 09:50:41;;;;;;;14.63;7.50;;;-0.80;99.90;;;;;;5036095;28;20044;-69
2022/12/10 09:53:11;;;;;;;8.43;4.80;;;-0.80;99.90;;;;;;5063199;28;20041;-67
2022/12/10 09:55:43;;;;;;;7.78;4.25;;;-0.90;99.90;;;;;;5057607;28;20049;-67
2022/12/10 09:58:20;;;;;;;7.72;4.65;;;-1.00;99.90;;;;;;5057380;28;20500;-68
2022/12/10 10:00:50;;;;;;;8.38;4.68;;;-1.10;99.90;;;;;;5048278;28;20160;-68
2022/12/10 10:03:16;;;;;;;7.47;4.65;;;-1.00;99.90;;;;;;5060116;28;20047;-66
2022/12/10 10:05:46;;;;;;;6.93;4.47;;;-1.20;99.90;;;;;;5055495;28;20040;-70
2022/12/10 10:08:20;;;;;;;7.07;4.13;;;-1.10;99.90;;;;;;5062669;28;20056;-68
2022/12/10 10:10:47;;;;;;;6.63;3.80;;;-1.10;99.90;;;;;;5058709;28;20060;-68
2022/12/10 10:13:34;;;;;;;7.70;3.95;;;-0.90;99.90;;;;;;5062628;28;20049;-68
2022/12/10 10:16:30;;;;;;;6.75;4.15;;;-0.80;99.90;;;;;;5061849;28;20047;-68
2022/12/10 10:19:02;;;;;;;8.05;4.88;;;-1.00;99.90;;;;;;5061291;28;20511;-69
2022/12/10 10:21:33;;;;;;;13.57;7.20;;;-1.00;99.90;;;;;;5061820;28;20037;-70
2022/12/10 10:24:01;;;;;;;9.25;4.88;;;-1.10;99.90;;;;;;5055674;28;20071;-70
2022/12/10 10:26:27;;;;;;;10.52;4.28;;;-1.10;99.90;;;;;;5061347;28;20071;-70
2022/12/10 10:29:00;;;;;;;7.53;4.30;;;-1.20;99.90;;;;;;5063704;28;20069;-69
2022/12/10 10:31:30;;;;;;;7.43;4.90;;;-1.20;99.90;;;;;;5059366;28;20036;-69
2022/12/10 10:34:02;;;;;;;8.38;4.50;;;-1.10;99.90;;;;;;5041783;28;20779;-69
2022/12/10 10:36:34;;;;;;;9.35;4.80;;;-1.10;99.90;;;;;;5036474;28;20040;-70
2022/12/10 10:39:16;;;;;;;7.53;4.38;;;-1.00;99.90;;;;;;5052471;28;20131;-69
2022/12/10 10:41:42;;;;;;;8.05;4.22;;;-1.00;99.90;;;;;;5055338;28;20070;-69
2022/12/10 10:44:19;;;;;;;6.68;4.40;;;-0.90;99.90;;;;;;5061516;28;20036;-70
2022/12/10 10:46:47;;;;;;;8.63;4.38;;;-0.80;99.90;;;;;;5059476;28;20040;-68
2022/12/10 10:49:21;;;;;;;6.40;4.00;;;-0.80;99.90;;;;;;5046196;28;20119;-70
2022/12/10 10:51:47;;;;;;;7.93;4.80;;;-0.70;99.90;;;;;;5059404;28;20089;-70
2022/12/10 10:54:37;;;;;;;8.90;4.65;;;-0.70;99.90;;;;;;5061984;28;20044;-69
2022/12/10 10:57:11;;;;;;;5.78;3.63;;;-0.80;99.90;;;;;;5059957;28;20104;-70
2022/12/10 10:59:37;;;;;;;7.53;4.07;;;-0.90;99.90;;;;;;5046595;28;20036;-70
2022/12/10 11:02:24;;;;;;;8.05;3.90;;;-1.00;99.90;;;;;;5058178;28;20109;-70
2022/12/10 11:04:51;;;;;;;;;;;-1.10;99.90;;;;;;5057840;28;20037;-68
2022/12/10 11:07:45;;;;;;;7.38;4.30;;;-1.10;99.90;;;;;;4996051;28;20693;-68
2022/12/10 11:10:21;;;;;;;7.97;4.40;;;-1.00;99.90;;;;;;5052095;28;20092;-71
2022/12/10 11:13:00;;;;;;;8.57;4.88;;;-1.10;99.90;;;;;;5050493;28;20104;-68
2022/12/10 11:15:41;;;;;;;17.42;11.23;;;-1.00;99.90;;;;;;5052084;28;20076;-70
2022/12/10 11:18:41;;;;;;;11.18;7.50;;;-0.90;99.90;;;;;;5071145;28;20111;-68
2022/12/10 11:21:13;;;;;;;10.98;5.55;;;-0.90;99.90;;;;;;5022832;28;20055;-73
2022/12/10 11:23:41;;;;;;;46.40;27.08;;;-0.80;99.90;;;;;;5049115;28;20051;-69
2022/12/10 11:26:29;;;;;;;17.88;9.25;;;-0.70;99.90;;;;;;5053820;28;20129;-68
2022/12/10 11:29:20;;;;;;;10.75;6.15;;;-0.60;99.90;;;;;;5059496;28;20267;-68
2022/12/10 11:32:34;;;;;;;22.90;13.80;;;-0.50;99.90;;;;;;5060666;28;20504;-67
2022/12/10 11:35:13;;;;;;;15.98;9.70;;;-0.40;99.90;;;;;;5012873;28;20050;-68
2022/12/10 11:38:09;;;;;;;10.73;6.22;;;-0.50;99.90;;;;;;5078678;28;20051;-69
2022/12/10 11:40:59;;;;;;;13.77;7.90;;;-0.60;99.90;;;;;;5078982;28;20036;-68
2022/12/10 11:43:56;;;;;;;16.13;9.20;;;-0.90;99.90;;;;;;5079136;28;20032;-69
2022/12/10 11:46:40;;;;;;;14.65;7.97;;;-0.70;99.90;;;;;;5076007;28;20036;-70
2022/12/10 11:49:28;;;;;;;13.82;7.90;;;-0.70;99.90;;;;;;5085112;28;20032;-69
2022/12/10 11:52:04;;;;;;;13.77;8.32;;;-0.70;99.90;;;;;;5074892;28;20044;-69
2022/12/10 11:54:57;;;;;;;17.92;8.10;;;-0.60;99.90;;;;;;5065530;28;20897;-69
2022/12/10 11:57:39;;;;;;;14.68;8.18;;;-0.40;99.90;;;;;;5081206;28;20051;-69
2022/12/10 12:00:16;;;;;;;16.38;8.70;;;-0.10;99.90;;;;;;5083501;28;20036;-69
2022/12/10 12:02:47;;;;;;;16.58;9.13;;;-0.10;99.90;;;;;;5087252;28;20439;-69
2022/12/10 12:05:43;;;;;;;17.35;9.73;;;-0.50;99.90;;;;;;5102221;28;20039;-70
2022/12/10 12:08:27;;;;;;;16.10;9.00;;;-0.70;99.90;;;;;;5105189;28;20055;-70
2022/12/10 12:11:05;;;;;;;15.68;8.85;;;-0.70;99.90;;;;;;5098557;28;20040;-70
2022/12/10 12:13:41;;;;;;;13.85;7.82;;;-0.60;99.90;;;;;;5090787;28;20035;-70
2022/12/10 12:16:11;;;;;;;15.48;8.35;;;-0.40;99.90;;;;;;5099252;27;20686;-71
2022/12/10 12:18:54;;;;;;;16.52;8.65;;;-0.70;99.90;;;;;;5096297;28;20073;-70
2022/12/10 12:21:20;;;;;;;16.50;8.73;;;-0.60;99.90;;;;;;5081526;28;20067;-70
2022/12/10 12:23:58;;;;;;;16.45;9.25;;;-0.90;99.90;;;;;;5095180;28;20565;-70
2022/12/10 12:26:47;;;;;;;18.70;10.20;;;-1.00;99.90;;;;;;5101592;28;20048;-68
2022/12/10 12:29:28;;;;;;;15.43;8.90;;;-1.00;99.90;;;;;;5104662;28;20141;-70
2022/12/10 12:31:55;;;;;;;14.27;8.43;;;-0.80;99.90;;;;;;5079875;28;20030;-68
2022/12/10 12:34:32;;;;;;;20.23;9.65;;;-0.70;99.90;;;;;;5105488;28;20040;-69
2022/12/10 12:36:59;;;;;;;15.55;9.23;;;-0.80;99.90;;;;;;5106185;27;20040;-69
2022/12/10 12:39:54;;;;;;;20.98;10.82;;;-1.00;99.90;;;;;;5108439;28;20669;-69
2022/12/10 12:42:29;;;;;;;19.60;9.63;;;-1.20;99.90;;;;;;5092637;28;20544;-69
2022/12/10 12:45:13;;;;;;;19.00;10.07;;;-1.20;99.90;;;;;;5098811;28;20039;-70
2022/12/10 12:48:11;;;;;;;18.42;10.20;;;-1.20;99.90;;;;;;5105159;27;20446;-69
2022/12/10 12:50:59;;;;;;;27.60;14.32;;;-1.30;99.90;;;;;;5102223;28;20050;-69
2022/12/10 12:53:25;;;;;;;17.42;10.23;;;-1.40;99.90;;;;;;5100297;28;20039;-70
2022/12/10 12:55:54;;;;;;;19.58;11.38;;;-1.40;99.90;;;;;;5099092;27;20114;-68
2022/12/10 12:58:43;;;;;;;21.95;11.38;;;-1.40;99.90;;;;;;5086146;28;20028;-70
2022/12/10 13:01:30;;;;;;;24.42;12.10;;;-1.40;99.90;;;;;;5073281;28;20042;-68
2022/12/10 13:03:57;;;;;;;22.42;11.43;;;-1.40;99.90;;;;;;5094509;28;20161;-70
2022/12/10 13:06:26;;;;;;;24.92;12.57;;;-1.40;99.90;;;;;;5061398;22;20045;-76
2022/12/10 13:09:12;;;;;;;20.80;11.73;;;-1.30;99.90;;;;;;5051377;28;20057;-79
2022/12/10 13:11:41;;;;;;;18.60;10.25;;;-1.20;99.90;;;;;;5045860;28;20119;-81
2022/12/10 13:14:08;;;;;;;18.60;11.80;;;-1.10;99.90;;;;;;5041156;28;20059;-80
2022/12/10 13:16:48;;;;;;;21.27;10.75;;;-1.10;99.90;;;;;;5028315;28;20102;-80
2022/12/10 13:19:20;;;;;;;20.55;10.30;;;-1.10;99.90;;;;;;5027878;28;20048;-76
2022/12/10 13:22:02;;;;;;;16.77;10.02;;;-1.20;99.90;;;;;;5029084;28;20049;-80
2022/12/10 13:24:36;;;;;;;15.35;9.55;;;-1.50;99.90;;;;;;5030116;28;20064;-80